sensor_id;sensor_type;location;lat;lon;timestamp;pressure;altitude;pressure_sealevel;temperature;humidity
70833;BME280;71099;59.528;17.886;2023-11-19T00:01:34;101592.78;;;-2.75;74.33
70833;BME280;71099;59.528;17.886;2023-11-19T00:04:00;101591.19;;;-2.79;74.15
70833;BME280;71099;59.528;17.886;2023-11-19T00:06:25;101594.44;;;-2.74;74.13
70833;BME280;71099;59.528;17.886;2023-11-19T00:08:51;101590.25;;;-2.75;74.10
70833;BME280;71099;59.528;17.886;2023-11-19T00:11:16;101575.28;;;-2.83;73.94
70833;BME280;71099;59.528;17.886;2023-11-19T00:13:42;101583.88;;;-2.90;73.99
70833;BME280;71099;59.528;17.886;2023-11-19T00:16:08;101577.41;;;-3.02;74.39
70833;BME280;71099;59.528;17.886;2023-11-19T00:18:35;101570.78;;;-3.07;74.42
70833;BME280;71099;59.528;17.886;2023-11-19T00:21:01;101571.84;;;-3.16;74.98
70833;BME280;71099;59.528;17.886;2023-11-19T00:23:27;101572.47;;;-3.08;74.86
70833;BME280;71099;59.528;17.886;2023-11-19T00:25:52;101570.78;;;-3.07;74.94
70833;BME280;71099;59.528;17.886;2023-11-19T00:28:18;101561.31;;;-2.98;74.91
70833;BME280;71099;59.528;17.886;2023-11-19T00:30:43;101562.69;;;-2.86;74.78
70833;BME280;71099;59.528;17.886;2023-11-19T00:33:09;101551.63;;;-2.80;74.38
70833;BME280;71099;59.528;17.886;2023-11-19T00:35:34;101550.63;;;-2.73;74.22
70833;BME280;71099;59.528;17.886;2023-11-19T00:37:59;101545.50;;;-2.70;74.19
70833;BME280;71099;59.528;17.886;2023-11-19T00:40:25;101535.25;;;-2.64;73.81
70833;BME280;71099;59.528;17.886;2023-11-19T00:42:51;101528.38;;;-2.59;73.50
70833;BME280;71099;59.528;17.886;2023-11-19T00:45:16;101529.22;;;-2.60;73.44
70833;BME280;71099;59.528;17.886;2023-11-19T00:47:42;101529.22;;;-2.60;73.38
70833;BME280;71099;59.528;17.886;2023-11-19T00:50:08;101524.13;;;-2.57;73.04
70833;BME280;71099;59.528;17.886;2023-11-19T00:52:37;101523.94;;;-2.50;72.89
70833;BME280;71099;59.528;17.886;2023-11-19T00:55:03;101520.41;;;-2.46;73.00
70833;BME280;71099;59.528;17.886;2023-11-19T00:57:30;101518.72;;;-2.45;72.51
70833;BME280;71099;59.528;17.886;2023-11-19T01:00:01;101509.34;;;-2.40;72.52
70833;BME280;71099;59.528;17.886;2023-11-19T01:02:26;101515.16;;;-2.38;72.77
70833;BME280;71099;59.528;17.886;2023-11-19T01:04:52;101520.16;;;-2.35;72.44
70833;BME280;71099;59.528;17.886;2023-11-19T01:07:17;101526.75;;;-2.29;72.14
70833;BME280;71099;59.528;17.886;2023-11-19T01:09:42;101510.84;;;-2.33;72.68
70833;BME280;71099;59.528;17.886;2023-11-19T01:12:08;101512.59;;;-2.35;72.50
70833;BME280;71099;59.528;17.886;2023-11-19T01:14:35;101509.16;;;-2.34;72.07
70833;BME280;71099;59.528;17.886;2023-11-19T01:17:01;101497.25;;;-2.29;71.97
70833;BME280;71099;59.528;17.886;2023-11-19T01:19:26;101507.34;;;-2.29;72.29
70833;BME280;71099;59.528;17.886;2023-11-19T01:21:53;101509.91;;;-2.61;71.37
70833;BME280;71099;59.528;17.886;2023-11-19T01:24:19;101515.25;;;-2.73;71.46
70833;BME280;71099;59.528;17.886;2023-11-19T01:26:45;101504.09;;;-2.65;71.57
70833;BME280;71099;59.528;17.886;2023-11-19T01:29:14;101502.31;;;-2.61;71.58
70833;BME280;71099;59.528;17.886;2023-11-19T01:31:43;101497.09;;;-2.55;71.48
70833;BME280;71099;59.528;17.886;2023-11-19T01:34:10;101500.38;;;-2.52;71.86
70833;BME280;71099;59.528;17.886;2023-11-19T01:36:36;101506.09;;;-2.45;71.82
70833;BME280;71099;59.528;17.886;2023-11-19T01:39:02;101490.94;;;-2.45;71.58
70833;BME280;71099;59.528;17.886;2023-11-19T01:41:29;101500.25;;;-2.47;71.24
70833;BME280;71099;59.528;17.886;2023-11-19T01:43:55;101490.19;;;-2.49;71.37
70833;BME280;71099;59.528;17.886;2023-11-19T01:46:20;101487.53;;;-2.44;71.47
70833;BME280;71099;59.528;17.886;2023-11-19T01:48:46;101489.13;;;-2.40;71.56
70833;BME280;71099;59.528;17.886;2023-11-19T01:51:16;101478.00;;;-2.34;71.53
70833;BME280;71099;59.528;17.886;2023-11-19T01:53:42;101475.41;;;-2.31;71.56
70833;BME280;71099;59.528;17.886;2023-11-19T01:56:09;101472.94;;;-2.34;71.90
70833;BME280;71099;59.528;17.886;2023-11-19T01:58:37;101465.34;;;-2.33;71.56
70833;BME280;71099;59.528;17.886;2023-11-19T02:01:05;101467.69;;;-2.27;71.35
70833;BME280;71099;59.528;17.886;2023-11-19T02:03:33;101465.34;;;-2.33;71.55
70833;BME280;71099;59.528;17.886;2023-11-19T02:05:59;101459.31;;;-2.29;71.34
70833;BME280;71099;59.528;17.886;2023-11-19T02:08:25;101457.47;;;-2.24;71.00
70833;BME280;71099;59.528;17.886;2023-11-19T02:10:51;101459.13;;;-2.21;71.42
70833;BME280;71099;59.528;17.886;2023-11-19T02:13:18;101458.47;;;-2.28;71.41
70833;BME280;71099;59.528;17.886;2023-11-19T02:15:43;101453.31;;;-2.25;71.91
70833;BME280;71099;59.528;17.886;2023-11-19T02:18:26;101447.34;;;-2.22;71.56
70833;BME280;71099;59.528;17.886;2023-11-19T02:20:58;101443.75;;;-2.15;71.54
70833;BME280;71099;59.528;17.886;2023-11-19T02:23:26;101433.94;;;-2.24;71.23
70833;BME280;71099;59.528;17.886;2023-11-19T02:28:39;101442.25;;;-2.21;71.38
70833;BME280;71099;59.528;17.886;2023-11-19T02:31:05;101437.09;;;-2.18;71.16
70833;BME280;71099;59.528;17.886;2023-11-19T02:33:35;101429.41;;;-2.15;71.33
70833;BME280;71099;59.528;17.886;2023-11-19T02:36:02;101425.19;;;-2.14;71.09
70833;BME280;71099;59.528;17.886;2023-11-19T02:38:29;101423.66;;;-2.20;71.00
70833;BME280;71099;59.528;17.886;2023-11-19T02:40:56;101427.75;;;-2.16;71.46
70833;BME280;71099;59.528;17.886;2023-11-19T02:43:22;101423.94;;;-2.29;71.31
70833;BME280;71099;59.528;17.886;2023-11-19T02:45:48;101417.44;;;-2.37;71.62
70833;BME280;71099;59.528;17.886;2023-11-19T02:48:13;101418.25;;;-2.37;71.78
70833;BME280;71099;59.528;17.886;2023-11-19T02:50:41;101420.91;;;-2.41;71.71
70833;BME280;71099;59.528;17.886;2023-11-19T02:53:06;101413.94;;;-2.33;72.27
70833;BME280;71099;59.528;17.886;2023-11-19T02:55:32;101402.03;;;-2.28;71.93
70833;BME280;71099;59.528;17.886;2023-11-19T02:58:03;101404.47;;;-2.27;72.09
70833;BME280;71099;59.528;17.886;2023-11-19T03:00:34;101400.47;;;-2.34;71.86
70833;BME280;71099;59.528;17.886;2023-11-19T03:03:01;101404.75;;;-2.36;71.41
70833;BME280;71099;59.528;17.886;2023-11-19T03:05:43;101396.75;;;-2.50;71.22
70833;BME280;71099;59.528;17.886;2023-11-19T03:08:10;101384.44;;;-2.62;71.32
70833;BME280;71099;59.528;17.886;2023-11-19T03:10:35;101383.59;;;-2.61;71.33
70833;BME280;71099;59.528;17.886;2023-11-19T03:13:01;101376.72;;;-2.87;71.87
70833;BME280;71099;59.528;17.886;2023-11-19T03:15:28;101366.00;;;-2.97;72.03
70833;BME280;71099;59.528;17.886;2023-11-19T03:17:53;101360.81;;;-2.90;72.66
70833;BME280;71099;59.528;17.886;2023-11-19T03:20:19;101363.53;;;-2.98;72.45
70833;BME280;71099;59.528;17.886;2023-11-19T03:22:46;101363.34;;;-3.23;73.03
70833;BME280;71099;59.528;17.886;2023-11-19T03:25:11;101365.38;;;-3.37;73.65
70833;BME280;71099;59.528;17.886;2023-11-19T03:27:38;101363.19;;;-3.49;73.93
70833;BME280;71099;59.528;17.886;2023-11-19T03:30:11;101352.28;;;-3.51;74.57
70833;BME280;71099;59.528;17.886;2023-11-19T03:32:36;101348.81;;;-3.47;74.15
70833;BME280;71099;59.528;17.886;2023-11-19T03:35:04;101340.31;;;-3.43;74.20
70833;BME280;71099;59.528;17.886;2023-11-19T03:37:29;101337.78;;;-3.43;74.45
70833;BME280;71099;59.528;17.886;2023-11-19T03:39:56;101338.81;;;-3.50;74.63
70833;BME280;71099;59.528;17.886;2023-11-19T03:42:25;101337.72;;;-3.40;75.09
70833;BME280;71099;59.528;17.886;2023-11-19T03:44:52;101331.63;;;-3.33;74.94
70833;BME280;71099;59.528;17.886;2023-11-19T03:47:17;101330.22;;;-3.43;74.78
70833;BME280;71099;59.528;17.886;2023-11-19T03:49:47;101322.56;;;-3.40;75.05
70833;BME280;71099;59.528;17.886;2023-11-19T03:52:14;101317.41;;;-3.35;75.07
70833;BME280;71099;59.528;17.886;2023-11-19T03:54:39;101317.63;;;-3.45;75.21
70833;BME280;71099;59.528;17.886;2023-11-19T03:57:04;101315.59;;;-3.30;75.63
70833;BME280;71099;59.528;17.886;2023-11-19T03:59:30;101316.09;;;-3.18;75.33
70833;BME280;71099;59.528;17.886;2023-11-19T04:01:56;101317.16;;;-3.26;75.40
70833;BME280;71099;59.528;17.886;2023-11-19T04:04:22;101309.31;;;-3.16;75.38
70833;BME280;71099;59.528;17.886;2023-11-19T04:06:48;101312.38;;;-3.05;75.31
70833;BME280;71099;59.528;17.886;2023-11-19T04:09:13;101308.88;;;-3.01;75.12
70833;BME280;71099;59.528;17.886;2023-11-19T04:11:39;101302.88;;;-2.97;74.86
70833;BME280;71099;59.528;17.886;2023-11-19T04:14:05;101303.78;;;-2.98;75.01
70833;BME280;71099;59.528;17.886;2023-11-19T04:16:30;101300.63;;;-3.06;74.88
70833;BME280;71099;59.528;17.886;2023-11-19T04:18:56;101295.59;;;-3.06;75.00
70833;BME280;71099;59.528;17.886;2023-11-19T04:21:22;101292.13;;;-3.03;75.10
70833;BME280;71099;59.528;17.886;2023-11-19T04:23:48;101283.63;;;-3.01;75.16
70833;BME280;71099;59.528;17.886;2023-11-19T04:26:14;101285.16;;;-2.93;75.29
70833;BME280;71099;59.528;17.886;2023-11-19T04:28:40;101279.22;;;-2.92;75.11
70833;BME280;71099;59.528;17.886;2023-11-19T04:31:06;101278.78;;;-3.07;75.17
70833;BME280;71099;59.528;17.886;2023-11-19T04:33:31;101271.81;;;-2.99;75.31
70833;BME280;71099;59.528;17.886;2023-11-19T04:35:57;101268.97;;;-2.88;75.10
70833;BME280;71099;59.528;17.886;2023-11-19T04:38:22;101264.78;;;-2.87;75.36
70833;BME280;71099;59.528;17.886;2023-11-19T04:40:47;101262.13;;;-2.83;75.12
70833;BME280;71099;59.528;17.886;2023-11-19T04:43:13;101262.16;;;-2.84;75.28
70833;BME280;71099;59.528;17.886;2023-11-19T04:45:38;101257.22;;;-2.89;75.13
70833;BME280;71099;59.528;17.886;2023-11-19T04:48:05;101253.06;;;-2.90;75.34
70833;BME280;71099;59.528;17.886;2023-11-19T04:50:30;101247.66;;;-3.07;75.61
70833;BME280;71099;59.528;17.886;2023-11-19T04:52:56;101243.25;;;-3.01;75.66
70833;BME280;71099;59.528;17.886;2023-11-19T04:55:21;101241.59;;;-3.02;75.73
70833;BME280;71099;59.528;17.886;2023-11-19T04:57:47;101245.75;;;-2.99;75.79
70833;BME280;71099;59.528;17.886;2023-11-19T05:00:13;101242.47;;;-3.03;75.79
70833;BME280;71099;59.528;17.886;2023-11-19T05:02:38;101234.56;;;-2.90;75.83
70833;BME280;71099;59.528;17.886;2023-11-19T05:05:04;101231.81;;;-2.83;75.93
70833;BME280;71099;59.528;17.886;2023-11-19T05:07:30;101230.34;;;-2.90;75.50
70833;BME280;71099;59.528;17.886;2023-11-19T05:09:55;101231.13;;;-2.89;75.23
70833;BME280;71099;59.528;17.886;2023-11-19T05:12:21;101235.84;;;-2.77;75.39
70833;BME280;71099;59.528;17.886;2023-11-19T05:14:48;101237.31;;;-2.70;75.48
70833;BME280;71099;59.528;17.886;2023-11-19T05:17:17;101232.16;;;-2.67;75.26
70833;BME280;71099;59.528;17.886;2023-11-19T05:19:43;101232.09;;;-2.64;75.39
70833;BME280;71099;59.528;17.886;2023-11-19T05:22:09;101231.03;;;-2.57;75.39
70833;BME280;71099;59.528;17.886;2023-11-19T05:24:34;101224.94;;;-2.52;75.31
70833;BME280;71099;59.528;17.886;2023-11-19T05:27:01;101219.88;;;-2.50;75.45
70833;BME280;71099;59.528;17.886;2023-11-19T05:29:27;101218.91;;;-2.46;75.20
70833;BME280;71099;59.528;17.886;2023-11-19T05:31:52;101222.28;;;-2.47;75.44
70833;BME280;71099;59.528;17.886;2023-11-19T05:34:20;101213.91;;;-2.49;75.63
70833;BME280;71099;59.528;17.886;2023-11-19T05:36:46;101211.78;;;-2.61;75.19
70833;BME280;71099;59.528;17.886;2023-11-19T05:39:12;101215.06;;;-2.59;74.83
70833;BME280;71099;59.528;17.886;2023-11-19T05:41:37;101212.41;;;-2.55;75.39
70833;BME280;71099;59.528;17.886;2023-11-19T05:44:03;101199.72;;;-2.53;74.93
70833;BME280;71099;59.528;17.886;2023-11-19T05:46:28;101198.91;;;-2.54;75.16
70833;BME280;71099;59.528;17.886;2023-11-19T05:48:53;101198.00;;;-2.51;75.11
70833;BME280;71099;59.528;17.886;2023-11-19T05:51:19;101194.59;;;-2.50;75.10
70833;BME280;71099;59.528;17.886;2023-11-19T05:53:45;101193.66;;;-2.48;75.49
70833;BME280;71099;59.528;17.886;2023-11-19T05:56:15;101193.03;;;-2.54;75.07
70833;BME280;71099;59.528;17.886;2023-11-19T05:58:46;101184.66;;;-2.56;75.27
70833;BME280;71099;59.528;17.886;2023-11-19T06:01:14;101181.06;;;-2.49;75.21
70833;BME280;71099;59.528;17.886;2023-11-19T06:03:40;101180.09;;;-2.45;75.13
70833;BME280;71099;59.528;17.886;2023-11-19T06:06:06;101178.59;;;-2.51;75.45
70833;BME280;71099;59.528;17.886;2023-11-19T06:08:31;101181.38;;;-2.58;74.79
70833;BME280;71099;59.528;17.886;2023-11-19T06:10:57;101177.19;;;-2.59;75.17
70833;BME280;71099;59.528;17.886;2023-11-19T06:13:22;101182.19;;;-2.58;75.13
70833;BME280;71099;59.528;17.886;2023-11-19T06:15:49;101185.72;;;-2.63;75.30
70833;BME280;71099;59.528;17.886;2023-11-19T06:18:16;101186.41;;;-2.58;75.16
70833;BME280;71099;59.528;17.886;2023-11-19T06:20:41;101183.75;;;-2.54;75.26
70833;BME280;71099;59.528;17.886;2023-11-19T06:23:07;101187.06;;;-2.52;75.36
70833;BME280;71099;59.528;17.886;2023-11-19T06:25:32;101184.38;;;-2.47;75.13
70833;BME280;71099;59.528;17.886;2023-11-19T06:28:00;101182.63;;;-2.45;75.29
70833;BME280;71099;59.528;17.886;2023-11-19T06:30:25;101183.53;;;-2.46;75.37
70833;BME280;71099;59.528;17.886;2023-11-19T06:32:53;101180.94;;;-2.44;75.13
70833;BME280;71099;59.528;17.886;2023-11-19T06:35:18;101183.47;;;-2.44;75.29
70833;BME280;71099;59.528;17.886;2023-11-19T06:37:44;101179.22;;;-2.44;75.34
70833;BME280;71099;59.528;17.886;2023-11-19T06:40:10;101183.66;;;-2.51;75.14
70833;BME280;71099;59.528;17.886;2023-11-19T06:42:35;101181.91;;;-2.49;74.93
70833;BME280;71099;59.528;17.886;2023-11-19T06:45:02;101172.41;;;-2.42;75.39
70833;BME280;71099;59.528;17.886;2023-11-19T06:47:28;101180.69;;;-2.37;75.35
70833;BME280;71099;59.528;17.886;2023-11-19T06:49:54;101170.47;;;-2.34;74.94
70833;BME280;71099;59.528;17.886;2023-11-19T06:52:20;101164.50;;;-2.31;75.49
70833;BME280;71099;59.528;17.886;2023-11-19T06:54:45;101160.25;;;-2.31;75.25
70833;BME280;71099;59.528;17.886;2023-11-19T06:57:11;101166.88;;;-2.27;75.10
70833;BME280;71099;59.528;17.886;2023-11-19T06:59:37;101165.97;;;-2.24;75.12
70833;BME280;71099;59.528;17.886;2023-11-19T07:02:02;101156.66;;;-2.24;75.02
70833;BME280;71099;59.528;17.886;2023-11-19T07:04:28;101158.41;;;-2.26;74.99
70833;BME280;71099;59.528;17.886;2023-11-19T07:06:53;101160.25;;;-2.31;74.96
70833;BME280;71099;59.528;17.886;2023-11-19T07:09:19;101166.31;;;-2.35;74.71
70833;BME280;71099;59.528;17.886;2023-11-19T07:11:44;101163.78;;;-2.35;75.10
70833;BME280;71099;59.528;17.886;2023-11-19T07:14:11;101162.75;;;-2.29;74.91
70833;BME280;71099;59.528;17.886;2023-11-19T07:16:36;101151.88;;;-2.31;74.85
70833;BME280;71099;59.528;17.886;2023-11-19T07:19:03;101153.56;;;-2.32;75.32
70833;BME280;71099;59.528;17.886;2023-11-19T07:21:28;101156.88;;;-2.30;75.31
70833;BME280;71099;59.528;17.886;2023-11-19T07:23:57;101150.84;;;-2.52;75.40
70833;BME280;71099;59.528;17.886;2023-11-19T07:26:22;101142.28;;;-2.48;75.68
70833;BME280;71099;59.528;17.886;2023-11-19T07:28:51;101149.78;;;-2.45;75.36
70833;BME280;71099;59.528;17.886;2023-11-19T07:31:17;101142.09;;;-2.42;75.18
70833;BME280;71099;59.528;17.886;2023-11-19T07:33:46;101145.50;;;-2.43;74.98
70833;BME280;71099;59.528;17.886;2023-11-19T07:36:13;101142.09;;;-2.42;75.31
70833;BME280;71099;59.528;17.886;2023-11-19T07:38:38;101132.72;;;-2.38;75.51
70833;BME280;71099;59.528;17.886;2023-11-19T07:41:05;101133.66;;;-2.41;75.20
70833;BME280;71099;59.528;17.886;2023-11-19T07:43:31;101137.84;;;-2.40;75.25
70833;BME280;71099;59.528;17.886;2023-11-19T07:45:57;101138.59;;;-2.38;75.38
70833;BME280;71099;59.528;17.886;2023-11-19T07:48:24;101142.19;;;-2.45;75.27
70833;BME280;71099;59.528;17.886;2023-11-19T07:50:52;101138.69;;;-2.41;75.27
70833;BME280;71099;59.528;17.886;2023-11-19T07:53:19;101136.97;;;-2.39;75.26
70833;BME280;71099;59.528;17.886;2023-11-19T07:55:44;101130.47;;;-2.46;75.23
70833;BME280;71099;59.528;17.886;2023-11-19T07:58:13;101134.84;;;-2.53;75.41
70833;BME280;71099;59.528;17.886;2023-11-19T08:00:38;101124.84;;;-2.56;75.67
70833;BME280;71099;59.528;17.886;2023-11-19T08:03:04;101123.41;;;-2.63;75.97
70833;BME280;71099;59.528;17.886;2023-11-19T08:05:30;101114.03;;;-2.59;75.85
70833;BME280;71099;59.528;17.886;2023-11-19T08:07:55;101130.84;;;-2.58;75.76
70833;BME280;71099;59.528;17.886;2023-11-19T08:10:21;101122.34;;;-2.56;76.00
70833;BME280;71099;59.528;17.886;2023-11-19T08:12:47;101120.53;;;-2.52;75.82
70833;BME280;71099;59.528;17.886;2023-11-19T08:15:13;101120.34;;;-2.46;75.76
70833;BME280;71099;59.528;17.886;2023-11-19T08:17:38;101122.47;;;-2.60;75.86
70833;BME280;71099;59.528;17.886;2023-11-19T08:20:04;101129.81;;;-2.53;75.93
70833;BME280;71099;59.528;17.886;2023-11-19T08:22:30;101121.88;;;-2.42;76.30
70833;BME280;71099;59.528;17.886;2023-11-19T08:24:56;101121.69;;;-2.36;76.35
70833;BME280;71099;59.528;17.886;2023-11-19T08:27:22;101123.97;;;-2.28;76.36
70833;BME280;71099;59.528;17.886;2023-11-19T08:29:54;101125.69;;;-2.30;75.67
70833;BME280;71099;59.528;17.886;2023-11-19T08:32:21;101130.50;;;-2.23;75.52
70833;BME280;71099;59.528;17.886;2023-11-19T08:34:46;101126.13;;;-2.18;76.02
70833;BME280;71099;59.528;17.886;2023-11-19T08:37:11;101125.91;;;-2.12;75.95
70833;BME280;71099;59.528;17.886;2023-11-19T08:39:38;101125.09;;;-2.12;75.13
70833;BME280;71099;59.528;17.886;2023-11-19T08:42:04;101120.75;;;-2.09;75.91
70833;BME280;71099;59.528;17.886;2023-11-19T08:44:29;101127.25;;;-2.02;75.37
70833;BME280;71099;59.528;17.886;2023-11-19T08:46:54;101130.47;;;-1.97;75.16
70833;BME280;71099;59.528;17.886;2023-11-19T08:49:20;101120.50;;;-2.01;75.26
70833;BME280;71099;59.528;17.886;2023-11-19T08:51:45;101135.47;;;-1.95;75.55
70833;BME280;71099;59.528;17.886;2023-11-19T08:54:11;101126.06;;;-1.91;75.10
70833;BME280;71099;59.528;17.886;2023-11-19T08:56:38;101132.03;;;-1.94;74.99
70833;BME280;71099;59.528;17.886;2023-11-19T08:59:04;101120.34;;;-1.97;74.89
70833;BME280;71099;59.528;17.886;2023-11-19T09:01:30;101120.34;;;-1.97;74.36
70833;BME280;71099;59.528;17.886;2023-11-19T09:03:55;101125.09;;;-1.87;74.35
70833;BME280;71099;59.528;17.886;2023-11-19T09:06:21;101118.25;;;-1.85;74.57
70833;BME280;71099;59.528;17.886;2023-11-19T09:08:46;101120.84;;;-1.87;74.09
70833;BME280;71099;59.528;17.886;2023-11-19T09:11:12;101125.50;;;-2.00;74.59
70833;BME280;71099;59.528;17.886;2023-11-19T09:13:37;101117.56;;;-1.89;74.46
70833;BME280;71099;59.528;17.886;2023-11-19T09:16:02;101109.91;;;-1.87;74.50
70833;BME280;71099;59.528;17.886;2023-11-19T09:18:31;101111.44;;;-1.83;74.60
70833;BME280;71099;59.528;17.886;2023-11-19T09:20:57;101110.63;;;-2.09;74.31
70833;BME280;71099;59.528;17.886;2023-11-19T09:23:23;101111.84;;;-2.19;75.47
70833;BME280;71099;59.528;17.886;2023-11-19T09:25:50;101105.09;;;-2.18;75.33
70833;BME280;71099;59.528;17.886;2023-11-19T09:28:16;101090.38;;;-2.32;75.26
70833;BME280;71099;59.528;17.886;2023-11-19T09:30:41;101090.75;;;-2.18;75.91
70833;BME280;71099;59.528;17.886;2023-11-19T09:33:06;101090.41;;;-2.09;74.98
70833;BME280;71099;59.528;17.886;2023-11-19T09:35:32;101076.41;;;-2.17;74.95
70833;BME280;71099;59.528;17.886;2023-11-19T09:37:58;101074.47;;;-2.11;75.30
70833;BME280;71099;59.528;17.886;2023-11-19T09:40:24;101066.44;;;-2.22;75.33
70833;BME280;71099;59.528;17.886;2023-11-19T09:42:50;101063.50;;;-2.10;75.38
70833;BME280;71099;59.528;17.886;2023-11-19T09:45:17;101068.34;;;-2.04;75.29
70833;BME280;71099;59.528;17.886;2023-11-19T09:47:46;101058.88;;;-1.99;75.24
70833;BME280;71099;59.528;17.886;2023-11-19T09:50:19;101057.16;;;-1.98;74.85
70833;BME280;71099;59.528;17.886;2023-11-19T09:52:45;101052.47;;;-2.09;74.97
70833;BME280;71099;59.528;17.886;2023-11-19T09:55:11;101046.25;;;-1.99;75.25
70833;BME280;71099;59.528;17.886;2023-11-19T09:57:38;101035.00;;;-2.15;75.43
70833;BME280;71099;59.528;17.886;2023-11-19T10:00:05;101032.22;;;-2.07;75.63
70833;BME280;71099;59.528;17.886;2023-11-19T10:02:33;101050.25;;;-1.93;75.63
70833;BME280;71099;59.528;17.886;2023-11-19T10:05:04;101050.81;;;-1.85;75.64
70833;BME280;71099;59.528;17.886;2023-11-19T10:07:31;101037.88;;;-1.77;75.44
70833;BME280;71099;59.528;17.886;2023-11-19T10:09:59;101040.28;;;-1.74;75.20
70833;BME280;71099;59.528;17.886;2023-11-19T10:12:26;101034.47;;;-1.76;74.71
70833;BME280;71099;59.528;17.886;2023-11-19T10:14:52;101025.34;;;-1.80;75.41
70833;BME280;71099;59.528;17.886;2023-11-19T10:17:19;101026.53;;;-1.67;75.10
70833;BME280;71099;59.528;17.886;2023-11-19T10:19:44;101029.47;;;-1.56;74.53
70833;BME280;71099;59.528;17.886;2023-11-19T10:22:10;101030.06;;;-1.50;74.03
70833;BME280;71099;59.528;17.886;2023-11-19T10:24:36;101025.66;;;-1.44;74.67
70833;BME280;71099;59.528;17.886;2023-11-19T10:27:07;101023.72;;;-1.38;74.18
70833;BME280;71099;59.528;17.886;2023-11-19T10:29:36;101024.66;;;-1.40;74.28
70833;BME280;71099;59.528;17.886;2023-11-19T10:32:02;101026.91;;;-1.33;74.08
70833;BME280;71099;59.528;17.886;2023-11-19T10:34:27;101019.44;;;-1.36;74.67
70833;BME280;71099;59.528;17.886;2023-11-19T10:36:53;101006.78;;;-1.36;74.11
70833;BME280;71099;59.528;17.886;2023-11-19T10:39:19;101008.91;;;-1.47;74.88
70833;BME280;71099;59.528;17.886;2023-11-19T10:41:46;101001.78;;;-1.59;75.06
70833;BME280;71099;59.528;17.886;2023-11-19T10:44:11;100995.44;;;-1.92;76.40
70833;BME280;71099;59.528;17.886;2023-11-19T10:46:41;100994.31;;;-1.85;76.85
70833;BME280;71099;59.528;17.886;2023-11-19T10:49:07;100993.59;;;-1.66;76.05
70833;BME280;71099;59.528;17.886;2023-11-19T10:51:33;100989.44;;;-1.68;76.02
70833;BME280;71099;59.528;17.886;2023-11-19T10:54:02;100997.94;;;-1.69;75.64
70833;BME280;71099;59.528;17.886;2023-11-19T10:56:31;100987.81;;;-1.69;75.85
70833;BME280;71099;59.528;17.886;2023-11-19T10:58:59;100990.34;;;-1.69;75.92
70833;BME280;71099;59.528;17.886;2023-11-19T11:01:27;100986.84;;;-1.65;75.78
70833;BME280;71099;59.528;17.886;2023-11-19T11:03:59;100988.69;;;-1.70;75.42
70833;BME280;71099;59.528;17.886;2023-11-19T11:06:26;100988.97;;;-1.78;75.69
70833;BME280;71099;59.528;17.886;2023-11-19T11:08:52;100992.38;;;-1.79;75.56
70833;BME280;71099;59.528;17.886;2023-11-19T11:11:18;100986.16;;;-1.70;75.88
70833;BME280;71099;59.528;17.886;2023-11-19T11:13:47;100977.03;;;-1.74;75.42
70833;BME280;71099;59.528;17.886;2023-11-19T11:16:15;100976.75;;;-1.67;75.88
70833;BME280;71099;59.528;17.886;2023-11-19T11:18:44;100968.28;;;-1.66;75.11
70833;BME280;71099;59.528;17.886;2023-11-19T11:21:13;100970.63;;;-1.61;75.01
70833;BME280;71099;59.528;17.886;2023-11-19T11:29:10;100964.72;;;-1.83;75.02
70833;BME280;71099;59.528;17.886;2023-11-19T11:32:01;100962.75;;;-1.75;75.57
70833;BME280;71099;59.528;17.886;2023-11-19T11:39:33;100960.28;;;-1.55;74.89
70833;BME280;71099;59.528;17.886;2023-11-19T11:45:07;100948.50;;;-1.56;75.20
70833;BME280;71099;59.528;17.886;2023-11-19T11:50:12;100943.31;;;-1.53;75.38
70833;BME280;71099;59.528;17.886;2023-11-19T11:55:24;100943.69;;;-1.62;75.13
70833;BME280;71099;59.528;17.886;2023-11-19T11:57:51;100939.38;;;-1.60;74.75
70833;BME280;71099;59.528;17.886;2023-11-19T12:02:55;100943.41;;;-1.76;76.02
70833;BME280;71099;59.528;17.886;2023-11-19T12:05:21;100931.63;;;-1.77;76.41
70833;BME280;71099;59.528;17.886;2023-11-19T12:08:00;100934.69;;;-1.69;76.13
70833;BME280;71099;59.528;17.886;2023-11-19T12:10:29;100934.16;;;-1.77;75.90
70833;BME280;71099;59.528;17.886;2023-11-19T12:13:04;100928.09;;;-1.95;76.37
70833;BME280;71099;59.528;17.886;2023-11-19T12:15:31;100933.91;;;-1.93;76.04
70833;BME280;71099;59.528;17.886;2023-11-19T12:17:56;100930.25;;;-1.86;76.39
70833;BME280;71099;59.528;17.886;2023-11-19T12:20:26;100932.22;;;-1.92;75.86
70833;BME280;71099;59.528;17.886;2023-11-19T12:22:52;100939.69;;;-1.89;76.00
70833;BME280;71099;59.528;17.886;2023-11-19T12:25:19;100926.78;;;-1.83;76.18
70833;BME280;71099;59.528;17.886;2023-11-19T12:27:51;100932.16;;;-1.69;75.98
70833;BME280;71099;59.528;17.886;2023-11-19T12:30:26;100926.56;;;-1.56;75.30
70833;BME280;71099;59.528;17.886;2023-11-19T12:32:53;100920.00;;;-1.61;74.95
70833;BME280;71099;59.528;17.886;2023-11-19T12:35:19;100932.38;;;-1.54;75.19
70833;BME280;71099;59.528;17.886;2023-11-19T12:37:51;100924.84;;;-1.55;74.98
70833;BME280;71099;59.528;17.886;2023-11-19T12:40:19;100925.56;;;-1.52;74.76
70833;BME280;71099;59.528;17.886;2023-11-19T12:42:46;100919.66;;;-1.52;74.59
70833;BME280;71099;59.528;17.886;2023-11-19T12:45:13;100919.28;;;-1.43;74.19
70833;BME280;71099;59.528;17.886;2023-11-19T12:47:39;100914.59;;;-1.52;73.86
70833;BME280;71099;59.528;17.886;2023-11-19T12:50:08;100920.94;;;-1.42;74.37
70833;BME280;71099;59.528;17.886;2023-11-19T12:52:35;100904.22;;;-1.46;73.57
70833;BME280;71099;59.528;17.886;2023-11-19T12:55:02;100906.44;;;-1.38;74.45
70833;BME280;71099;59.528;17.886;2023-11-19T12:57:41;100903.47;;;-1.28;74.26
70833;BME280;71099;59.528;17.886;2023-11-19T13:00:07;100898.09;;;-1.20;73.58
70833;BME280;71099;59.528;17.886;2023-11-19T13:02:52;100903.31;;;-1.23;73.73